Aeroporto :
LOGIN :

Iscrizione | Disclaimer

   EN    FR    IT 

 










Sommario :    VFR   VFR Marginale   IFR   IFR Intensivo   IFR Molto Intensivo
Visibilità : 
Base nubi : 
>= 8 km
>= 3000ft
5 / 8 km
1000 / 3000 ft
1500m / 5 km
500 / 1000 ft
800 / 1500m
200 / 500 ft
< 800m
< 200 ft
Simboli :   Temporali  Nebbia  Neve Forte  Precipitazioni Forti  Vento > 20 kt
SIGMETs :   Varie  Temporali  Ghiacco  Turbolenza  Onda orograficha  Ceneri Vulcaniche






- Altitudine del aeroporto : 646 ft
- Codice IATA : VNO


EYVI - Vilnius int.

ULTIMO METAR :
  • 210120Z 18006KT 9999 BKN041 M01/M02 Q1016 R19/0///95 NOSIG

METARs OBSOLETI :
  • 210050Z 18007KT CAVOK M01/M02 Q1016 R19/0///95 NOSIG
  • 210020Z 16006KT 9999 SCT036 M01/M02 Q1017 R19/0///95 NOSIG
  • 202350Z 18005KT 9999 BKN037 M01/M01 Q1017 R19/0///95 NOSIG
  • 202320Z 17004KT 9999 SCT039 M01/M01 Q1017 R19/0///95 NOSIG
  • 202250Z 17005KT CAVOK M01/M01 Q1018 R19/0///95 NOSIG

TAF TAF EYVI
Valido dal 21 a 00 ore il 22 a 00 ore UTC


202320Z 2100/2124 VRB03KT 9000 BKN020
TEMPO 2100/2106 SCT005
BECMG 2106/2107 18014G24KT
BECMG 2109/2110 OVC005
TEMPO 2111/2119 3000 SHRASN BKN002 BKN015CB
TEMPO 2119/2124 1500 BR BKN002



MetMap, La meteo Aeronautica in un colpo d'occhio ! - Copyright ORBIFLY Dicembre 2007 - Disclaimer

ORBIFLY MET'MAP TEAM :

Programmazione e sviluppo : Alexandra Zaïnal
Concezione : Baudouin d'Aumeries
Aiuto per la programmazione : Marc-Olivier Méhu
Supporto tecnico e logistico : Manuel Goepfert
Aiuto per la traduzione : Arnaldo La Scala

Contatto : metmap@orbifly.com




FONTI E CREDITI :

   NOAA